Ketchikan, Alaska
Current Conditions -  °F | °C
As of 5:53 PM on Wednesday 22 Oct 2014 (Local Time) from PAKT Reporting Station
Overcast Overcast  
Wind Chill: 43°   Ceiling: 6000
Heat Index: 47°   Visibility: 10mi
Dew Point: 46°   Wind: 8mph
Humidity: 97%   Direction: 300°WNW
Pressure: 29.35"   Gusts: NA
Location:  55.35°N, 131.69°W
Report Text: PAKT 230153Z 30007KT 10SM BKN060 OVC075 08/08 A2935 RMK AO2 RAB11E23 SLP939 P0000 T00830078
Loading
Personal Weather Stations






























Interactive Weather Map
Tropical Storm Tracking
New forecast layout! Learn more

10-Day Weather Forecast

Advertisements
Track Severe Weather on mobile